Time;durP1;ratioP1;P1;durP2;ratioP2;P2;SDS_P1;SDS_P2;PMS_P1;PMS_P2;Temp;Humidity;BMP_temperature;BMP_pressure;BME280_temperature;BME280_humidity;BME280_pressure;Samples;Min_cycle;Max_cycle;Signal;HPM_P1;HPM_P2
2021/07/07 00:00:00;;;;;;;0.10;0.10;;;;;;;19.31;54.31;101162.72;5033254;28;20033;-83
2021/07/07 00:02:26;;;;;;;0.00;0.00;;;;;;;19.39;54.88;101155.16;5032107;28;20061;-80
2021/07/07 00:04:53;;;;;;;0.77;0.77;;;;;;;19.38;54.34;101162.31;5032393;28;20076;-80
2021/07/07 00:07:20;;;;;;;0.10;0.10;;;;;;;19.21;54.50;101170.38;5032359;28;20116;-81
2021/07/07 00:09:46;;;;;;;0.00;0.00;;;;;;;19.21;54.43;101165.88;5015011;28;20034;-82
2021/07/07 00:12:13;;;;;;;0.10;0.10;;;;;;;19.31;55.31;101168.94;5015015;28;20030;-80
2021/07/07 00:14:39;;;;;;;0.10;0.10;;;;;;;19.15;54.59;101166.22;5033050;28;20026;-80
2021/07/07 00:17:06;;;;;;;0.40;0.40;;;;;;;18.98;54.63;101167.06;5032626;28;20105;-81
2021/07/07 00:19:32;;;;;;;0.20;0.20;;;;;;;18.93;54.88;101163.72;5031999;28;20061;-81
2021/07/07 00:21:59;;;;;;;0.08;0.08;;;;;;;19.10;54.73;101164.69;5032672;28;20116;-80
2021/07/07 00:24:27;;;;;;;0.00;0.00;;;;;;;19.15;55.19;101170.69;5032575;28;20026;-81
2021/07/07 00:26:54;;;;;;;0.00;0.00;;;;;;;19.13;54.76;101168.09;5032456;28;20415;-80
2021/07/07 00:29:20;;;;;;;0.00;0.00;;;;;;;19.13;55.81;101167.22;5014343;28;20380;-80
2021/07/07 00:31:46;;;;;;;0.43;0.43;;;;;;;19.12;55.01;101165.50;5031259;28;20025;-80
2021/07/07 00:34:13;;;;;;;1.65;0.32;;;;;;;19.13;54.90;101172.56;5032627;28;20495;-81
2021/07/07 00:36:39;;;;;;;0.00;0.00;;;;;;;19.08;55.38;101165.63;5031806;28;20072;-83
2021/07/07 00:39:06;;;;;;;0.10;0.10;;;;;;;19.07;55.48;101163.03;5030136;28;20120;-81
2021/07/07 00:41:32;;;;;;;0.00;0.00;;;;;;;19.04;55.45;101168.53;5031772;28;20044;-80
2021/07/07 00:43:59;;;;;;;0.00;0.00;;;;;;;18.96;56.04;101166.25;5032963;28;20491;-80
2021/07/07 00:46:26;;;;;;;0.00;0.00;;;;;;;18.98;56.17;101169.75;5032436;28;20057;-80
2021/07/07 00:48:52;;;;;;;0.00;0.00;;;;;;;19.02;56.28;101167.78;5032822;28;20113;-81
2021/07/07 00:51:19;;;;;;;0.00;0.00;;;;;;;19.03;55.99;101162.31;5032387;28;20033;-83
2021/07/07 00:53:47;;;;;;;0.00;0.00;;;;;;;18.95;55.98;101163.66;5032600;28;20109;-80
2021/07/07 00:56:14;;;;;;;0.00;0.00;;;;;;;18.96;56.19;101163.56;5032943;28;20083;-81
2021/07/07 00:58:46;;;;;;;0.35;0.35;;;;;;;18.96;56.10;101160.03;5032575;28;20083;-81
2021/07/07 01:01:12;;;;;;;0.10;0.10;;;;;;;19.00;56.06;101158.91;5031947;28;20025;-80
2021/07/07 01:03:38;;;;;;;0.00;0.00;;;;;;;18.95;56.09;101152.91;5032290;28;20104;-83
2021/07/07 01:06:05;;;;;;;0.10;0.10;;;;;;;18.89;55.93;101148.66;5032581;28;20034;-80
2021/07/07 01:08:31;;;;;;;0.00;0.00;;;;;;;18.85;55.75;101152.47;5032520;28;20021;-80
2021/07/07 01:10:58;;;;;;;0.10;0.10;;;;;;;18.73;55.92;101153.97;5031887;28;20049;-79
2021/07/07 01:13:25;;;;;;;0.00;0.00;;;;;;;18.74;55.92;101151.19;5032340;28;20459;-80
2021/07/07 01:15:56;;;;;;;8.30;0.55;;;;;;;18.61;56.42;101155.41;5032175;28;20402;-80
2021/07/07 01:18:23;;;;;;;0.00;0.00;;;;;;;18.68;56.15;101151.50;5032459;28;20039;-79
2021/07/07 01:20:50;;;;;;;0.00;0.00;;;;;;;18.72;55.90;101138.78;5032171;28;20037;-80
2021/07/07 01:23:18;;;;;;;0.10;0.10;;;;;;;18.73;56.32;101146.75;5031522;28;20057;-79
2021/07/07 01:25:44;;;;;;;0.00;0.00;;;;;;;18.66;56.25;101142.63;5014283;28;20480;-80
2021/07/07 01:28:11;;;;;;;0.00;0.00;;;;;;;18.70;56.10;101140.66;5032028;28;20472;-79
2021/07/07 01:30:37;;;;;;;0.10;0.10;;;;;;;18.79;56.19;101147.41;5031422;28;20477;-82
2021/07/07 01:33:03;;;;;;;0.00;0.00;;;;;;;18.76;55.89;101143.91;5031455;28;20388;-80
2021/07/07 01:35:30;;;;;;;0.00;0.00;;;;;;;18.81;56.07;101142.84;5017721;28;20041;-79
2021/07/07 01:37:56;;;;;;;0.10;0.10;;;;;;;18.82;56.02;101142.75;5032553;28;20022;-79
2021/07/07 01:40:25;;;;;;;0.57;0.57;;;;;;;18.79;56.11;101144.72;5036010;28;20032;-80
2021/07/07 01:42:52;;;;;;;0.00;0.00;;;;;;;18.58;56.74;101136.78;5035640;28;20025;-79
2021/07/07 01:45:22;;;;;;;0.00;0.00;;;;;;;18.64;56.99;101144.53;5035621;28;20033;-79
2021/07/07 01:47:49;;;;;;;0.00;0.00;;;;;;;18.59;57.54;101146.56;5035231;28;20022;-80
2021/07/07 01:50:16;;;;;;;0.10;0.10;;;;;;;18.46;58.40;101148.13;5035565;28;20026;-80
2021/07/07 01:52:43;;;;;;;0.08;0.08;;;;;;;18.56;58.50;101147.56;5035228;28;20041;-79
2021/07/07 01:55:12;;;;;;;0.00;0.00;;;;;;;18.60;58.33;101151.00;5035372;28;20029;-79
2021/07/07 01:57:45;;;;;;;0.00;0.00;;;;;;;18.65;58.47;101150.78;5035488;28;20478;-78
2021/07/07 02:02:55;;;;;;;0.08;0.08;;;;;;;18.69;58.68;101157.72;5057792;27;20417;-79
2021/07/07 02:05:24;;;;;;;0.03;0.03;;;;;;;18.74;58.56;101151.19;5068922;28;20071;-79
2021/07/07 02:07:51;;;;;;;0.00;0.00;;;;;;;18.75;58.74;101152.03;5069983;28;20033;-79
2021/07/07 02:10:19;;;;;;;0.50;0.50;;;;;;;18.70;59.05;101160.31;5069725;28;20025;-79
2021/07/07 02:12:45;;;;;;;0.10;0.10;;;;;;;18.82;58.44;101160.69;5067270;28;20422;-78
2021/07/07 02:15:17;;;;;;;0.10;0.10;;;;;;;18.69;59.43;101158.59;5055724;28;20036;-79
2021/07/07 02:18:11;;;;;;;0.00;0.00;;;;;;;18.84;59.05;101162.34;5061571;28;20041;-77
2021/07/07 02:23:21;;;;;;;0.10;0.10;;;;;;;18.84;59.29;101161.47;5023561;28;20057;-81
2021/07/07 02:25:50;;;;;;;1.00;1.00;;;;;;;18.75;59.77;101166.34;5029340;28;20550;-81
2021/07/07 02:28:21;;;;;;;0.10;0.10;;;;;;;18.80;59.49;101170.63;5030389;28;20037;-82
2021/07/07 02:30:47;;;;;;;0.05;0.05;;;;;;;18.88;59.46;101163.91;5030218;28;20029;-82
2021/07/07 02:33:16;;;;;;;0.10;0.10;;;;;;;18.90;59.18;101166.53;5030734;28;20424;-82
2021/07/07 02:35:44;;;;;;;0.00;0.00;;;;;;;18.95;59.18;101169.03;5030442;28;20040;-82
2021/07/07 02:38:13;;;;;;;0.10;0.10;;;;;;;18.94;59.37;101173.53;5030908;28;20052;-81
2021/07/07 02:40:41;;;;;;;0.05;0.05;;;;;;;18.87;59.67;101169.38;5024585;28;20038;-83
2021/07/07 02:43:09;;;;;;;0.10;0.10;;;;;;;18.84;59.80;101165.03;5030429;28;20029;-83
2021/07/07 02:45:37;;;;;;;0.20;0.20;;;;;;;18.85;59.92;101165.88;5030942;28;20045;-82
2021/07/07 02:48:05;;;;;;;0.10;0.10;;;;;;;18.92;59.89;101157.47;5030586;28;20477;-81
2021/07/07 02:50:33;;;;;;;0.10;0.10;;;;;;;18.91;60.00;101168.28;5028457;28;20033;-80
2021/07/07 02:52:59;;;;;;;0.10;0.10;;;;;;;18.89;59.91;101168.34;5028577;28;20029;-82
2021/07/07 02:55:26;;;;;;;0.00;0.00;;;;;;;18.91;59.65;101169.16;5029562;28;20064;-82
2021/07/07 02:57:56;;;;;;;0.05;0.05;;;;;;;18.92;59.70;101167.34;5029654;28;20472;-82
2021/07/07 03:00:29;;;;;;;0.10;0.10;;;;;;;18.81;60.19;101172.38;5028289;28;20176;-81
2021/07/07 03:02:56;;;;;;;0.20;0.20;;;;;;;18.89;59.85;101173.72;5029212;28;20121;-82
2021/07/07 03:05:30;;;;;;;0.03;0.03;;;;;;;18.89;59.77;101175.50;5025625;28;20071;-81
2021/07/07 03:07:56;;;;;;;0.10;0.10;;;;;;;18.81;60.32;101180.41;5028808;28;20045;-82
2021/07/07 03:10:23;;;;;;;0.00;0.00;;;;;;;18.82;59.91;101174.09;5028345;28;20388;-82
2021/07/07 03:12:49;;;;;;;0.00;0.00;;;;;;;18.71;60.65;101180.84;5023345;28;20037;-82
2021/07/07 03:15:16;;;;;;;0.08;0.08;;;;;;;18.63;60.55;101183.06;5015493;28;21545;-82
2021/07/07 03:17:42;;;;;;;0.00;0.00;;;;;;;18.62;60.55;101173.25;5014933;28;20037;-82
2021/07/07 03:20:10;;;;;;;0.03;0.03;;;;;;;18.52;60.74;101177.34;5015701;28;20036;-82
2021/07/07 03:22:37;;;;;;;0.00;0.00;;;;;;;18.53;60.97;101176.38;5014753;28;20038;-82
2021/07/07 03:25:05;;;;;;;0.00;0.00;;;;;;;18.52;61.01;101178.19;5015222;28;20030;-83
2021/07/07 03:27:31;;;;;;;0.03;0.03;;;;;;;18.52;60.72;101180.03;5014642;28;20025;-83
2021/07/07 03:29:58;;;;;;;0.35;0.35;;;;;;;18.44;61.63;101177.69;5015624;28;20041;-82
2021/07/07 03:32:24;;;;;;;0.00;0.00;;;;;;;18.47;61.45;101182.03;5013898;28;20049;-82
2021/07/07 03:34:50;;;;;;;0.00;0.00;;;;;;;18.49;61.15;101186.41;5015427;28;20033;-82
2021/07/07 03:37:17;;;;;;;0.08;0.08;;;;;;;18.39;61.08;101183.28;5014999;28;20096;-82
2021/07/07 03:39:43;;;;;;;0.00;0.00;;;;;;;18.50;60.91;101179.22;5015420;28;20026;-83
2021/07/07 03:42:09;;;;;;;0.00;0.00;;;;;;;18.44;61.46;101188.41;5014308;28;20038;-82
2021/07/07 03:44:35;;;;;;;0.35;0.35;;;;;;;18.40;61.64;101189.50;5015182;28;20049;-81
2021/07/07 03:47:02;;;;;;;0.10;0.10;;;;;;;18.42;61.52;101196.53;5015082;28;20029;-82
2021/07/07 03:49:28;;;;;;;0.00;0.00;;;;;;;18.38;61.82;101194.97;5015046;28;20165;-82
2021/07/07 03:51:54;;;;;;;0.00;0.00;;;;;;;18.38;61.56;101194.06;5015288;28;20026;-81
2021/07/07 03:54:23;;;;;;;0.10;0.10;;;;;;;18.35;62.12;101196.91;5014511;28;20121;-82
2021/07/07 03:56:51;;;;;;;0.85;0.85;;;;;;;18.32;62.16;101187.19;5015166;28;20030;-83
2021/07/07 03:59:17;;;;;;;0.00;0.00;;;;;;;18.38;61.47;101188.72;5014632;28;20033;-82
2021/07/07 04:01:43;;;;;;;0.00;0.00;;;;;;;18.37;61.88;101195.91;5014984;28;20034;-82
2021/07/07 04:04:09;;;;;;;0.05;0.05;;;;;;;18.28;62.45;101196.34;5014553;28;20030;-82
2021/07/07 04:06:35;;;;;;;0.10;0.10;;;;;;;18.33;61.83;101194.31;5014706;28;20037;-82
2021/07/07 04:09:02;;;;;;;0.08;0.08;;;;;;;18.33;62.48;101207.72;5014453;28;20030;-81
2021/07/07 04:11:28;;;;;;;0.00;0.00;;;;;;;18.32;62.49;101203.28;5005402;28;20018;-82
2021/07/07 04:13:56;;;;;;;0.05;0.05;;;;;;;18.37;62.20;101201.25;5014840;28;20022;-83
2021/07/07 04:16:24;;;;;;;0.10;0.10;;;;;;;18.40;61.76;101194.88;5014615;28;20045;-82
2021/07/07 04:18:52;;;;;;;0.10;0.10;;;;;;;18.31;62.34;101200.69;5014521;28;20030;-84
2021/07/07 04:21:19;;;;;;;1.08;1.00;;;;;;;18.32;62.37;101205.09;5013137;28;20503;-82
2021/07/07 04:23:45;;;;;;;0.08;0.08;;;;;;;18.35;62.46;101204.97;5012909;28;20045;-82
2021/07/07 04:26:13;;;;;;;0.10;0.10;;;;;;;18.35;62.14;101203.13;5014147;28;20033;-82
2021/07/07 04:28:40;;;;;;;8.00;0.80;;;;;;;18.28;62.77;101212.44;5007561;28;20043;-81
2021/07/07 04:31:06;;;;;;;0.00;0.00;;;;;;;18.37;62.31;101208.44;5014318;28;20076;-81
2021/07/07 04:33:32;;;;;;;0.10;0.10;;;;;;;18.29;62.81;101214.16;5013852;28;20038;-83
2021/07/07 04:35:58;;;;;;;0.10;0.10;;;;;;;18.34;62.51;101217.47;5010626;28;20030;-82
2021/07/07 04:38:25;;;;;;;0.00;0.00;;;;;;;18.27;63.12;101221.41;5014159;28;20113;-82
2021/07/07 04:40:51;;;;;;;1.15;0.63;;;;;;;18.40;62.75;101221.72;5012980;28;20045;-82
2021/07/07 04:43:17;;;;;;;0.03;0.03;;;;;;;18.37;63.36;101227.22;5012395;28;20485;-82
2021/07/07 04:45:46;;;;;;;0.28;0.28;;;;;;;18.58;62.97;101219.97;5014159;28;20037;-82
2021/07/07 04:48:13;;;;;;;0.10;0.10;;;;;;;18.68;62.52;101229.31;5013798;28;20033;-82
2021/07/07 04:50:39;;;;;;;0.25;0.20;;;;;;;18.68;62.77;101223.06;5008353;28;20030;-82
2021/07/07 04:53:06;;;;;;;0.00;0.00;;;;;;;18.83;62.53;101229.50;5013291;28;20026;-82
2021/07/07 04:55:32;;;;;;;0.13;0.13;;;;;;;18.99;61.79;101229.66;5013937;28;20025;-82
2021/07/07 04:57:59;;;;;;;0.10;0.10;;;;;;;18.96;62.17;101228.00;5013906;28;20061;-80
2021/07/07 05:00:25;;;;;;;0.10;0.10;;;;;;;19.15;61.77;101230.66;5013670;28;20030;-81
2021/07/07 05:02:52;;;;;;;0.08;0.08;;;;;;;19.25;61.51;101231.06;5013219;28;20057;-83
2021/07/07 05:05:21;;;;;;;0.10;0.10;;;;;;;19.33;61.39;101228.84;5012809;28;20041;-82
2021/07/07 05:07:48;;;;;;;0.10;0.10;;;;;;;19.36;61.20;101225.13;5012660;28;20083;-83
2021/07/07 05:10:15;;;;;;;0.10;0.10;;;;;;;19.46;60.94;101231.78;5012458;28;20487;-82
2021/07/07 05:12:43;;;;;;;0.10;0.10;;;;;;;19.56;60.77;101234.88;5011877;28;20125;-81
2021/07/07 05:15:12;;;;;;;0.10;0.10;;;;;;;19.58;60.70;101232.97;5010887;28;20038;-81
2021/07/07 05:17:39;;;;;;;0.20;0.20;;;;;;;19.38;60.62;101240.22;5008733;28;20032;-81
2021/07/07 05:20:07;;;;;;;0.10;0.10;;;;;;;19.75;60.21;101236.59;5012839;28;20420;-81
2021/07/07 05:22:33;;;;;;;0.05;0.05;;;;;;;19.76;60.20;101239.19;5003182;23;20050;-78
2021/07/07 05:25:02;;;;;;;0.10;0.10;;;;;;;19.75;60.32;101247.34;4990987;28;20557;-80
2021/07/07 05:27:28;;;;;;;0.10;0.10;;;;;;;19.73;60.34;101252.81;4977581;28;20035;-79
2021/07/07 05:29:54;;;;;;;0.10;0.10;;;;;;;19.92;60.02;101254.56;4993857;28;20065;-80
2021/07/07 05:32:22;;;;;;;0.10;0.10;;;;;;;19.96;59.94;101251.66;4982427;28;20049;-80
2021/07/07 05:34:50;;;;;;;0.20;0.20;;;;;;;19.95;59.79;101247.22;4989861;28;20540;-82
2021/07/07 05:37:20;;;;;;;0.03;0.03;;;;;;;20.10;59.71;101244.66;4986660;28;20081;-79
2021/07/07 05:39:48;;;;;;;0.10;0.10;;;;;;;20.11;59.74;101254.47;4986479;28;20414;-80
2021/07/07 05:42:17;;;;;;;0.03;0.03;;;;;;;20.03;59.95;101250.34;4986387;28;20046;-81
2021/07/07 05:44:44;;;;;;;0.00;0.00;;;;;;;19.96;59.87;101259.72;4986226;28;20634;-81
2021/07/07 05:47:11;;;;;;;0.10;0.10;;;;;;;19.92;60.01;101260.81;4992055;28;20469;-81
2021/07/07 05:49:37;;;;;;;0.05;0.05;;;;;;;19.86;60.09;101261.13;4990511;28;20054;-81
2021/07/07 05:52:04;;;;;;;0.10;0.10;;;;;;;19.81;60.15;101266.75;4983903;28;20033;-81
2021/07/07 05:54:32;;;;;;;0.20;0.20;;;;;;;19.75;59.99;101263.47;4992204;28;20072;-81
2021/07/07 05:56:58;;;;;;;0.05;0.05;;;;;;;20.00;59.32;101257.72;4983228;28;20381;-79
2021/07/07 05:59:24;;;;;;;0.10;0.10;;;;;;;19.91;59.66;101263.59;4989768;28;20034;-82
2021/07/07 06:01:50;;;;;;;0.10;0.10;;;;;;;19.76;59.97;101268.78;4980717;28;20130;-83
2021/07/07 06:04:17;;;;;;;0.00;0.00;;;;;;;19.79;60.07;101270.44;4988584;28;20038;-82
2021/07/07 06:06:43;;;;;;;0.25;0.25;;;;;;;19.90;59.71;101270.81;4984305;28;20453;-82
2021/07/07 06:09:10;;;;;;;0.10;0.10;;;;;;;19.99;59.67;101281.06;4988339;28;20046;-85
2021/07/07 06:11:36;;;;;;;0.00;0.00;;;;;;;20.05;59.80;101279.88;4979970;28;20470;-82
2021/07/07 06:14:02;;;;;;;0.20;0.20;;;;;;;19.90;60.37;101276.19;4987357;28;20085;-82
2021/07/07 06:16:29;;;;;;;0.10;0.10;;;;;;;20.18;60.05;101269.31;4984764;28;20027;-82
2021/07/07 06:18:55;;;;;;;0.25;0.25;;;;;;;20.18;59.92;101282.78;4988146;28;20085;-82
2021/07/07 06:21:21;;;;;;;0.05;0.05;;;;;;;20.20;59.54;101280.88;4990947;28;20433;-82
2021/07/07 06:23:48;;;;;;;0.10;0.10;;;;;;;20.10;59.44;101290.38;4983891;28;20035;-82
2021/07/07 06:26:14;;;;;;;0.10;0.10;;;;;;;20.17;58.74;101287.25;4983666;28;20089;-82
2021/07/07 06:28:40;;;;;;;0.10;0.10;;;;;;;20.36;58.93;101300.63;4991675;28;20038;-83
2021/07/07 06:31:06;;;;;;;0.20;0.20;;;;;;;20.35;59.11;101298.88;4985207;28;20030;-82
2021/07/07 06:33:32;;;;;;;0.10;0.10;;;;;;;20.63;58.26;101313.50;4977494;28;20023;-82
2021/07/07 06:35:59;;;;;;;0.80;0.80;;;;;;;20.58;57.94;101309.34;4986311;28;20105;-82
2021/07/07 06:38:25;;;;;;;0.10;0.10;;;;;;;20.65;57.20;101311.63;4984386;28;20038;-82
2021/07/07 06:40:51;;;;;;;0.47;0.47;;;;;;;20.81;57.40;101313.47;4978996;28;20382;-83
2021/07/07 06:43:18;;;;;;;0.20;0.20;;;;;;;20.85;56.49;101317.75;4989729;28;20465;-83
2021/07/07 06:45:44;;;;;;;0.10;0.10;;;;;;;20.73;56.55;101318.44;4979035;28;20026;-83
2021/07/07 06:48:11;;;;;;;0.08;0.08;;;;;;;20.78;56.56;101306.44;4994709;28;20389;-83
2021/07/07 06:50:39;;;;;;;0.10;0.10;;;;;;;20.83;56.49;101311.56;4989049;28;20430;-82
2021/07/07 06:53:05;;;;;;;0.05;0.05;;;;;;;20.99;56.51;101304.38;5004318;23;20042;-80
2021/07/07 06:55:32;;;;;;;0.10;0.10;;;;;;;21.00;57.10;101299.88;4996294;28;20508;-80
2021/07/07 06:57:58;;;;;;;0.10;0.10;;;;;;;20.99;56.94;101311.59;5010267;28;20026;-81
2021/07/07 07:00:24;;;;;;;0.15;0.15;;;;;;;20.91;56.61;101321.91;4989296;28;20031;-81
2021/07/07 07:02:51;;;;;;;0.00;0.00;;;;;;;20.95;56.46;101327.06;4993885;28;20061;-82
2021/07/07 07:05:19;;;;;;;0.47;0.47;;;;;;;20.90;56.95;101330.94;4995539;28;20027;-82
2021/07/07 07:07:46;;;;;;;0.00;0.00;;;;;;;21.01;56.93;101326.72;4994080;28;20138;-81
2021/07/07 07:10:13;;;;;;;0.10;0.10;;;;;;;20.95;57.33;101329.75;4995312;28;20088;-80
2021/07/07 07:12:40;;;;;;;0.10;0.10;;;;;;;20.99;57.68;101325.91;4995253;28;20486;-80
2021/07/07 07:15:09;;;;;;;1.30;0.57;;;;;;;20.97;57.76;101338.63;4995352;28;20061;-80
2021/07/07 07:17:37;;;;;;;0.10;0.10;;;;;;;21.33;57.69;101339.28;4994040;28;20022;-81
2021/07/07 07:20:07;;;;;;;0.30;0.30;;;;;;;21.10;57.72;101341.47;4995111;28;20499;-81
2021/07/07 07:22:33;;;;;;;0.95;0.68;;;;;;;21.07;57.28;101347.06;4995081;28;20500;-82
2021/07/07 07:25:00;;;;;;;0.10;0.10;;;;;;;20.98;57.31;101339.47;4995330;28;20042;-83
2021/07/07 07:27:28;;;;;;;0.22;0.22;;;;;;;21.30;57.34;101340.34;4995115;28;20042;-81
2021/07/07 07:29:54;;;;;;;0.10;0.10;;;;;;;21.32;56.33;101346.53;5010183;28;20089;-81
2021/07/07 07:32:20;;;;;;;0.10;0.10;;;;;;;21.42;55.89;101345.97;4991226;28;20551;-80
2021/07/07 07:34:47;;;;;;;0.10;0.10;;;;;;;21.56;55.28;101354.19;4993843;28;20559;-80
2021/07/07 07:37:20;;;;;;;0.03;0.03;;;;;;;21.83;55.43;101358.88;4992236;28;20073;-82
2021/07/07 07:39:48;;;;;;;0.22;0.22;;;;;;;21.75;54.88;101358.50;4983926;28;20026;-80
2021/07/07 07:42:17;;;;;;;0.55;0.55;;;;;;;21.25;55.45;101357.75;4991220;28;20085;-80
2021/07/07 07:44:44;;;;;;;0.13;0.13;;;;;;;21.55;55.20;101368.59;4991151;28;20026;-80
2021/07/07 07:47:11;;;;;;;0.10;0.10;;;;;;;21.50;55.58;101368.84;4994487;28;20081;-83
2021/07/07 07:49:38;;;;;;;0.20;0.20;;;;;;;21.94;54.94;101371.75;4994517;28;20037;-81
2021/07/07 07:52:05;;;;;;;0.17;0.17;;;;;;;22.03;54.73;101371.22;4992532;28;20038;-82
2021/07/07 07:54:33;;;;;;;0.10;0.10;;;;;;;22.23;53.96;101371.81;4994731;28;20034;-83
2021/07/07 07:57:00;;;;;;;0.10;0.10;;;;;;;22.10;53.57;101377.09;4994562;28;20018;-82
2021/07/07 07:59:26;;;;;;;0.10;0.10;;;;;;;22.44;53.48;101369.66;4994505;28;20081;-83
2021/07/07 08:01:52;;;;;;;0.10;0.10;;;;;;;22.38;52.64;101367.34;4989860;28;20100;-77
2021/07/07 08:04:19;;;;;;;0.00;0.00;;;;;;;22.58;52.76;101372.38;4994025;28;20113;-82
2021/07/07 08:06:46;;;;;;;0.10;0.10;;;;;;;22.52;52.81;101367.38;4993633;28;20041;-82
2021/07/07 08:09:12;;;;;;;0.10;0.10;;;;;;;22.47;52.60;101380.28;4993702;28;20150;-80
2021/07/07 08:11:39;;;;;;;0.00;0.00;;;;;;;22.53;52.69;101374.50;4990950;28;20042;-83
2021/07/07 08:14:05;;;;;;;0.10;0.10;;;;;;;22.35;53.32;101391.81;4993343;28;20046;-84
2021/07/07 08:16:32;;;;;;;0.10;0.10;;;;;;;21.94;53.25;101380.72;4993654;28;20081;-82
2021/07/07 08:18:58;;;;;;;0.20;0.20;;;;;;;22.38;52.65;101386.25;4992235;28;20116;-81
2021/07/07 08:21:25;;;;;;;0.10;0.10;;;;;;;22.58;52.59;101394.00;4989613;28;20083;-82
2021/07/07 08:23:51;;;;;;;0.00;0.00;;;;;;;22.84;52.72;101399.59;4990414;28;20116;-78
2021/07/07 08:26:18;;;;;;;0.28;0.28;;;;;;;22.70;52.38;101386.94;4992516;28;20026;-83
2021/07/07 08:28:44;;;;;;;0.20;0.20;;;;;;;22.90;52.01;101382.13;4992105;28;20035;-87
2021/07/07 08:31:11;;;;;;;0.38;0.30;;;;;;;23.22;52.08;101388.19;4988775;28;20031;-84
2021/07/07 08:33:37;;;;;;;0.10;0.10;;;;;;;23.33;50.16;101390.19;4984070;28;20039;-87
2021/07/07 08:36:04;;;;;;;0.05;0.05;;;;;;;23.16;49.50;101402.09;4981488;28;20478;-86
2021/07/07 08:38:30;;;;;;;0.43;0.43;;;;;;;23.04;49.13;101400.16;4982364;28;20678;-85
2021/07/07 08:40:56;;;;;;;0.10;0.10;;;;;;;22.84;49.55;101407.72;4983951;28;20023;-86
2021/07/07 08:43:24;;;;;;;0.28;0.28;;;;;;;22.56;49.75;101405.84;4989471;28;20058;-83
2021/07/07 08:45:54;;;;;;;0.10;0.10;;;;;;;22.51;49.94;101403.44;4982994;28;20019;-84
2021/07/07 08:48:21;;;;;;;0.10;0.10;;;;;;;22.86;50.26;101407.59;4983619;28;20026;-84
2021/07/07 08:50:47;;;;;;;0.30;0.30;;;;;;;22.80;50.39;101416.09;4985440;28;20429;-88
2021/07/07 08:53:15;;;;;;;0.17;0.17;;;;;;;22.64;50.57;101417.03;4985202;28;20031;-89
2021/07/07 08:55:43;;;;;;;0.10;0.10;;;;;;;22.69;50.17;101419.47;4994336;28;20038;-88
2021/07/07 08:58:09;;;;;;;0.28;0.28;;;;;;;22.81;49.79;101426.78;4994128;28;20026;-87
2021/07/07 09:00:38;;;;;;;0.10;0.10;;;;;;;22.90;49.76;101420.84;4993803;28;20030;-87
2021/07/07 09:06:05;;;;;;;0.30;0.30;;;;;;;23.48;48.95;101425.28;5089637;27;20432;-89
2021/07/07 09:11:27;;;;;;;0.10;0.10;;;;;;;23.46;47.65;101428.13;5073793;27;20809;-88
2021/07/07 09:14:14;;;;;;;1.08;0.75;;;;;;;23.61;47.89;101428.09;5057792;28;20040;-87
2021/07/07 09:16:58;;;;;;;0.13;0.13;;;;;;;23.82;47.34;101423.94;5064789;28;20472;-87
2021/07/07 09:19:26;;;;;;;0.10;0.10;;;;;;;23.75;47.89;101433.44;5069962;28;20039;-89
2021/07/07 09:22:00;;;;;;;0.20;0.20;;;;;;;23.70;47.71;101439.16;5068038;28;20536;-83
2021/07/07 09:24:26;;;;;;;0.30;0.30;;;;;;;23.56;48.27;101442.78;5050288;28;20033;-85
2021/07/07 09:27:16;;;;;;;0.10;0.10;;;;;;;23.68;48.13;101432.97;5049489;28;20396;-85
2021/07/07 09:32:28;;;;;;;0.05;0.05;;;;;;;23.36;48.78;101454.03;5097965;27;20392;-80
2021/07/07 09:35:00;;;;;;;1.77;0.40;;;;;;;23.62;48.63;101454.16;5088683;28;20486;-86
2021/07/07 09:37:33;;;;;;;0.10;0.10;;;;;;;23.62;49.57;101456.88;5088918;28;20021;-89
2021/07/07 09:39:59;;;;;;;0.50;0.50;;;;;;;23.68;49.25;101461.88;5086249;28;20032;-84
2021/07/07 09:42:29;;;;;;;0.50;0.50;;;;;;;23.47;48.56;101458.75;5088149;28;20028;-85
2021/07/07 09:44:58;;;;;;;0.32;0.32;;;;;;;23.69;48.83;101464.47;5088107;28;20017;-84
2021/07/07 09:47:26;;;;;;;0.10;0.10;;;;;;;23.85;47.82;101461.63;5086577;28;20439;-84
2021/07/07 09:49:52;;;;;;;0.10;0.10;;;;;;;24.14;47.32;101471.50;5088427;28;20032;-86
2021/07/07 09:52:22;;;;;;;0.00;0.00;;;;;;;24.22;47.88;101475.44;5088755;28;20021;-83
2021/07/07 09:54:50;;;;;;;0.10;0.10;;;;;;;24.05;47.46;101478.38;5087700;28;20032;-83
2021/07/07 09:57:20;;;;;;;0.00;0.00;;;;;;;24.11;47.25;101467.16;5088355;28;20032;-85
2021/07/07 09:59:47;;;;;;;0.10;0.10;;;;;;;24.32;46.48;101466.69;5088357;28;20551;-84
2021/07/07 10:02:14;;;;;;;0.35;0.30;;;;;;;24.30;46.69;101477.63;5088100;28;20016;-85
2021/07/07 10:04:47;;;;;;;0.10;0.10;;;;;;;24.53;45.98;101472.47;5088333;28;20108;-86
2021/07/07 10:07:17;;;;;;;0.10;0.10;;;;;;;24.48;46.12;101475.47;5083105;28;20042;-85
2021/07/07 10:09:47;;;;;;;0.88;0.55;;;;;;;24.59;45.29;101472.03;5086065;28;20367;-85
2021/07/07 10:12:16;;;;;;;0.10;0.10;;;;;;;24.13;46.10;101478.75;5069041;28;20124;-87
2021/07/07 10:14:43;;;;;;;0.10;0.10;;;;;;;24.19;45.39;101480.19;5087978;28;20090;-85
2021/07/07 10:17:10;;;;;;;0.10;0.10;;;;;;;24.64;45.66;101479.84;5088287;28;20032;-87
2021/07/07 10:19:38;;;;;;;0.30;0.30;;;;;;;24.43;46.11;101476.78;5088371;28;20406;-87
2021/07/07 10:22:04;;;;;;;0.40;0.40;;;;;;;24.64;45.66;101479.84;5088524;28;20074;-89
2021/07/07 10:24:33;;;;;;;0.10;0.10;;;;;;;24.64;45.88;101482.56;5088582;28;20035;-86
2021/07/07 10:27:02;;;;;;;1.13;0.40;;;;;;;24.84;45.68;101482.03;5086120;28;20032;-85
2021/07/07 10:29:29;;;;;;;0.10;0.10;;;;;;;24.98;43.79;101483.78;5088071;28;20031;-84
2021/07/07 10:31:59;;;;;;;0.10;0.10;;;;;;;25.00;43.94;101478.25;5081967;28;20374;-85
2021/07/07 10:34:27;;;;;;;0.00;0.00;;;;;;;24.96;44.35;101490.28;5078661;28;20028;-84
2021/07/07 10:36:57;;;;;;;0.20;0.20;;;;;;;25.05;44.19;101489.63;5078957;28;20021;-83
2021/07/07 10:39:23;;;;;;;0.10;0.10;;;;;;;25.05;44.25;101484.22;5084644;28;20030;-89
2021/07/07 10:41:52;;;;;;;0.03;0.03;;;;;;;24.66;44.01;101491.47;5054750;28;20124;-86
2021/07/07 10:47:12;;;;;;;0.10;0.10;;;;;;;24.87;43.68;101497.22;5071692;28;20500;-86
2021/07/07 10:49:50;;;;;;;0.10;0.10;;;;;;;24.41;44.12;101503.09;5063217;28;20029;-85
2021/07/07 10:52:31;;;;;;;0.10;0.10;;;;;;;24.38;44.24;101506.88;5049666;28;20029;-85
2021/07/07 10:54:59;;;;;;;0.10;0.10;;;;;;;24.51;44.60;101507.78;5049600;28;20059;-85
2021/07/07 10:57:35;;;;;;;0.30;0.30;;;;;;;24.50;44.00;101514.16;5065031;28;20116;-86
2021/07/07 11:00:21;;;;;;;0.00;0.00;;;;;;;24.84;43.83;101517.28;5067641;28;20154;-88
2021/07/07 11:02:48;;;;;;;0.20;0.20;;;;;;;24.85;43.00;101519.00;5066149;28;20068;-84
2021/07/07 11:05:24;;;;;;;0.32;0.32;;;;;;;25.24;42.69;101521.72;5068545;28;20025;-84
2021/07/07 11:07:56;;;;;;;0.20;0.20;;;;;;;25.25;42.70;101523.47;5065401;28;20037;-82
2021/07/07 11:10:23;;;;;;;0.10;0.10;;;;;;;25.29;43.03;101540.38;5065655;28;20013;-83
2021/07/07 11:15:30;;;;;;;0.10;0.10;;;;;;;25.17;42.88;101531.25;5058989;28;20472;-82
2021/07/07 11:17:58;;;;;;;0.45;0.45;;;;;;;24.93;44.74;101536.59;5058670;28;20028;-82
2021/07/07 11:20:29;;;;;;;0.45;0.45;;;;;;;25.11;43.57;101542.53;5057553;28;20040;-82
2021/07/07 11:25:49;;;;;;;0.85;0.85;;;;;;;25.24;43.01;101547.97;5090269;27;20558;-80
2021/07/07 11:28:16;;;;;;;0.20;0.20;;;;;;;25.58;43.22;101541.00;5054409;28;20036;-84
2021/07/07 11:30:43;;;;;;;0.10;0.10;;;;;;;25.40;43.43;101554.06;5062253;28;20095;-82
2021/07/07 11:33:09;;;;;;;0.52;0.52;;;;;;;25.69;42.94;101551.09;5036738;28;20106;-82
2021/07/07 11:35:38;;;;;;;0.25;0.25;;;;;;;25.86;42.19;101543.53;5047506;28;20033;-82
2021/07/07 11:38:08;;;;;;;0.00;0.00;;;;;;;25.79;42.88;101554.84;5047254;28;20029;-84
2021/07/07 11:40:37;;;;;;;0.10;0.10;;;;;;;25.83;42.22;101550.97;5043605;28;20049;-83
2021/07/07 11:48:35;;;;;;;0.10;0.10;;;;;;;26.55;41.44;101553.81;5087889;27;20405;-83
2021/07/07 11:51:21;;;;;;;0.30;0.30;;;;;;;26.44;41.05;101565.50;5067969;28;20430;-82
2021/07/07 11:56:25;;;;;;;2.17;1.20;;;;;;;26.40;40.47;101566.72;5071670;28;20457;-86